sensor_id;sensor_type;location;lat;lon;timestamp;pressure;altitude;pressure_sealevel;temperature;humidity
68179;BME280;54998;42.656;23.382;2023-02-12T00:01:12;95795.16;;;-0.69;41.84
68179;BME280;54998;42.656;23.382;2023-02-12T00:03:38;95807.53;;;-0.63;42.28
68179;BME280;54998;42.656;23.382;2023-02-12T00:06:04;95804.31;;;-0.67;42.29
68179;BME280;54998;42.656;23.382;2023-02-12T00:08:29;95801.97;;;-0.73;42.62
68179;BME280;54998;42.656;23.382;2023-02-12T00:10:55;95805.75;;;-0.59;42.70
68179;BME280;54998;42.656;23.382;2023-02-12T00:13:20;95805.94;;;-0.66;42.32
68179;BME280;54998;42.656;23.382;2023-02-12T00:15:46;95809.97;;;-0.60;42.35
68179;BME280;54998;42.656;23.382;2023-02-12T00:18:11;95800.97;;;-0.67;42.42
68179;BME280;54998;42.656;23.382;2023-02-12T00:20:37;95799.41;;;-0.71;42.40
68179;BME280;54998;42.656;23.382;2023-02-12T00:23:03;95813.59;;;-0.67;42.24
68179;BME280;54998;42.656;23.382;2023-02-12T00:25:29;95813.47;;;-0.64;42.19
68179;BME280;54998;42.656;23.382;2023-02-12T00:27:54;95807.25;;;-0.80;42.25
68179;BME280;54998;42.656;23.382;2023-02-12T00:30:20;95802.94;;;-0.77;42.60
68179;BME280;54998;42.656;23.382;2023-02-12T00:32:45;95795.75;;;-0.89;42.50
68179;BME280;54998;42.656;23.382;2023-02-12T00:35:11;95812.44;;;-0.85;42.54
68179;BME280;54998;42.656;23.382;2023-02-12T00:37:36;95796.66;;;-0.90;42.72
68179;BME280;54998;42.656;23.382;2023-02-12T00:40:02;95798.53;;;-0.97;43.23
68179;BME280;54998;42.656;23.382;2023-02-12T00:42:28;95778.41;;;-0.98;42.84
68179;BME280;54998;42.656;23.382;2023-02-12T00:44:53;95778.34;;;-0.95;42.90
68179;BME280;54998;42.656;23.382;2023-02-12T00:47:19;95784.06;;;-0.90;42.73
68179;BME280;54998;42.656;23.382;2023-02-12T00:49:44;95791.78;;;-0.96;42.67
68179;BME280;54998;42.656;23.382;2023-02-12T00:52:09;95768.63;;;-1.08;42.72
68179;BME280;54998;42.656;23.382;2023-02-12T00:54:35;95769.13;;;-0.96;42.86
68179;BME280;54998;42.656;23.382;2023-02-12T00:57:00;95776.00;;;-1.01;42.86
68179;BME280;54998;42.656;23.382;2023-02-12T00:59:26;95769.38;;;-1.04;43.17
68179;BME280;54998;42.656;23.382;2023-02-12T01:01:53;95765.00;;;-0.99;42.85
68179;BME280;54998;42.656;23.382;2023-02-12T01:04:20;95755.66;;;-0.95;42.89
68179;BME280;54998;42.656;23.382;2023-02-12T01:06:45;95766.16;;;-0.83;42.47
68179;BME280;54998;42.656;23.382;2023-02-12T01:09:11;95762.78;;;-0.81;42.65
68179;BME280;54998;42.656;23.382;2023-02-12T01:11:38;95749.50;;;-0.87;42.40
68179;BME280;54998;42.656;23.382;2023-02-12T01:14:04;95758.66;;;-0.84;42.54
68179;BME280;54998;42.656;23.382;2023-02-12T01:16:29;95772.13;;;-0.85;42.80
68179;BME280;54998;42.656;23.382;2023-02-12T01:19:01;95775.25;;;-0.78;42.35
68179;BME280;54998;42.656;23.382;2023-02-12T01:21:28;95773.81;;;-0.86;42.58
68179;BME280;54998;42.656;23.382;2023-02-12T01:23:55;95782.31;;;-0.88;42.94
68179;BME280;54998;42.656;23.382;2023-02-12T01:26:20;95784.34;;;-0.73;42.66
68179;BME280;54998;42.656;23.382;2023-02-12T01:28:55;95773.66;;;-0.81;42.58
68179;BME280;54998;42.656;23.382;2023-02-12T01:31:24;95780.25;;;-0.77;42.68
68179;BME280;54998;42.656;23.382;2023-02-12T01:33:52;95786.97;;;-0.76;42.82
68179;BME280;54998;42.656;23.382;2023-02-12T01:36:18;95770.06;;;-0.74;42.85
68179;BME280;54998;42.656;23.382;2023-02-12T01:38:44;95767.84;;;-0.83;43.26
68179;BME280;54998;42.656;23.382;2023-02-12T01:41:12;95776.31;;;-0.84;43.42
68179;BME280;54998;42.656;23.382;2023-02-12T01:43:38;95758.47;;;-0.78;43.43
68179;BME280;54998;42.656;23.382;2023-02-12T01:46:05;95760.41;;;-0.86;43.66
68179;BME280;54998;42.656;23.382;2023-02-12T01:48:34;95761.38;;;-0.90;43.86
68179;BME280;54998;42.656;23.382;2023-02-12T01:53:37;95749.63;;;-0.91;44.08
68179;BME280;54998;42.656;23.382;2023-02-12T01:56:05;95736.97;;;-0.90;44.15
68179;BME280;54998;42.656;23.382;2023-02-12T01:58:36;95733.84;;;-0.96;44.17
68179;BME280;54998;42.656;23.382;2023-02-12T02:01:05;95722.16;;;-0.99;44.14
68179;BME280;54998;42.656;23.382;2023-02-12T02:03:33;95732.91;;;-0.94;44.21
68179;BME280;54998;42.656;23.382;2023-02-12T02:06:03;95734.66;;;-0.96;44.16
68179;BME280;54998;42.656;23.382;2023-02-12T02:08:31;95735.34;;;-0.91;43.81
68179;BME280;54998;42.656;23.382;2023-02-12T02:10:57;95732.09;;;-0.94;44.16
68179;BME280;54998;42.656;23.382;2023-02-12T02:13:24;95746.69;;;-1.04;44.58
68179;BME280;54998;42.656;23.382;2023-02-12T02:16:21;95751.06;;;-1.11;45.17
68179;BME280;54998;42.656;23.382;2023-02-12T02:18:55;95749.81;;;-1.24;45.80
68179;BME280;54998;42.656;23.382;2023-02-12T02:27:15;95745.00;;;-1.88;47.84
68179;BME280;54998;42.656;23.382;2023-02-12T02:35:19;95735.81;;;-1.61;46.70
68179;BME280;54998;42.656;23.382;2023-02-12T02:40:24;95736.91;;;-1.41;46.06
68179;BME280;54998;42.656;23.382;2023-02-12T02:43:15;95725.59;;;-1.56;46.49
68179;BME280;54998;42.656;23.382;2023-02-12T02:45:45;95735.31;;;-1.44;46.62
68179;BME280;54998;42.656;23.382;2023-02-12T02:48:19;95739.59;;;-1.48;46.68
68179;BME280;54998;42.656;23.382;2023-02-12T02:50:52;95753.84;;;-1.47;46.98
68179;BME280;54998;42.656;23.382;2023-02-12T02:53:29;95757.22;;;-1.48;47.21
68179;BME280;54998;42.656;23.382;2023-02-12T02:55:57;95761.47;;;-1.50;47.38
68179;BME280;54998;42.656;23.382;2023-02-12T02:58:34;95765.84;;;-1.55;47.50
68179;BME280;54998;42.656;23.382;2023-02-12T03:03:32;95765.66;;;-1.49;47.67
68179;BME280;54998;42.656;23.382;2023-02-12T03:06:03;95760.50;;;-1.44;47.30
68179;BME280;54998;42.656;23.382;2023-02-12T03:08:46;95759.84;;;-1.51;47.81
68179;BME280;54998;42.656;23.382;2023-02-12T03:11:18;95763.25;;;-1.52;47.83
68179;BME280;54998;42.656;23.382;2023-02-12T03:13:54;95756.22;;;-1.42;47.76
68179;BME280;54998;42.656;23.382;2023-02-12T03:16:28;95752.19;;;-1.48;48.10
68179;BME280;54998;42.656;23.382;2023-02-12T03:19:02;95763.81;;;-1.43;47.74
68179;BME280;54998;42.656;23.382;2023-02-12T03:27:02;95745.16;;;-1.36;48.10
68179;BME280;54998;42.656;23.382;2023-02-12T03:29:29;95740.44;;;-1.47;48.66
68179;BME280;54998;42.656;23.382;2023-02-12T03:31:57;95740.34;;;-1.44;48.43
68179;BME280;54998;42.656;23.382;2023-02-12T03:35:14;95749.31;;;-1.35;48.28
68179;BME280;54998;42.656;23.382;2023-02-12T03:37:30;95751.50;;;-1.53;48.80
68179;BME280;54998;42.656;23.382;2023-02-12T03:56:49;95737.47;;;-1.32;48.89
68179;BME280;54998;42.656;23.382;2023-02-12T03:59:21;95728.63;;;-1.45;49.07
68179;BME280;54998;42.656;23.382;2023-02-12T04:01:48;95730.84;;;-1.34;49.00
68179;BME280;54998;42.656;23.382;2023-02-12T04:04:14;95730.84;;;-1.34;48.80
68179;BME280;54998;42.656;23.382;2023-02-12T04:06:41;95725.97;;;-1.40;49.07
68179;BME280;54998;42.656;23.382;2023-02-12T04:09:09;95739.16;;;-1.32;48.77
68179;BME280;54998;42.656;23.382;2023-02-12T04:14:19;95731.78;;;-1.38;49.13
68179;BME280;54998;42.656;23.382;2023-02-12T04:19:52;95735.09;;;-1.36;49.17
68179;BME280;54998;42.656;23.382;2023-02-12T04:25:06;95744.06;;;-1.28;49.12
68179;BME280;54998;42.656;23.382;2023-02-12T04:27:49;95760.41;;;-1.41;49.29
68179;BME280;54998;42.656;23.382;2023-02-12T04:30:34;95758.41;;;-1.59;49.93
68179;BME280;54998;42.656;23.382;2023-02-12T04:33:03;95756.84;;;-1.34;49.46
68179;BME280;54998;42.656;23.382;2023-02-12T04:35:38;95764.53;;;-1.38;49.39
68179;BME280;54998;42.656;23.382;2023-02-12T04:40:30;95760.44;;;-1.42;49.68
68179;BME280;54998;42.656;23.382;2023-02-12T04:42:56;95757.81;;;-1.39;49.60
68179;BME280;54998;42.656;23.382;2023-02-12T04:45:26;95755.88;;;-1.30;49.42
68179;BME280;54998;42.656;23.382;2023-02-12T04:47:52;95766.66;;;-1.26;49.29
68179;BME280;54998;42.656;23.382;2023-02-12T04:50:17;95764.91;;;-1.24;49.37
68179;BME280;54998;42.656;23.382;2023-02-12T04:52:43;95763.09;;;-1.19;49.42
68179;BME280;54998;42.656;23.382;2023-02-12T04:55:09;95756.59;;;-1.26;49.48
68179;BME280;54998;42.656;23.382;2023-02-12T04:57:34;95761.53;;;-1.23;49.50
68179;BME280;54998;42.656;23.382;2023-02-12T05:00:00;95770.25;;;-1.33;50.04
68179;BME280;54998;42.656;23.382;2023-02-12T05:02:25;95760.91;;;-1.30;49.72
68179;BME280;54998;42.656;23.382;2023-02-12T05:04:51;95764.91;;;-1.24;49.87
68179;BME280;54998;42.656;23.382;2023-02-12T05:07:16;95770.22;;;-1.05;49.22
68179;BME280;54998;42.656;23.382;2023-02-12T05:09:42;95767.81;;;-1.08;49.18
68179;BME280;54998;42.656;23.382;2023-02-12T05:12:07;95764.66;;;-1.15;49.57
68179;BME280;54998;42.656;23.382;2023-02-12T05:14:33;95773.56;;;-1.05;49.32
68179;BME280;54998;42.656;23.382;2023-02-12T05:16:58;95766.19;;;-1.11;49.63
68179;BME280;54998;42.656;23.382;2023-02-12T05:19:24;95770.66;;;-1.19;49.75
68179;BME280;54998;42.656;23.382;2023-02-12T05:21:50;95766.97;;;-1.09;49.55
68179;BME280;54998;42.656;23.382;2023-02-12T05:24:16;95782.19;;;-1.12;49.62
68179;BME280;54998;42.656;23.382;2023-02-12T05:26:41;95781.69;;;-0.95;49.32
68179;BME280;54998;42.656;23.382;2023-02-12T05:29:07;95778.75;;;-1.09;50.19
68179;BME280;54998;42.656;23.382;2023-02-12T05:31:32;95786.09;;;-1.01;51.30
68179;BME280;54998;42.656;23.382;2023-02-12T05:33:58;95787.69;;;-0.99;51.06
68179;BME280;54998;42.656;23.382;2023-02-12T05:36:24;95795.75;;;-0.89;50.74
68179;BME280;54998;42.656;23.382;2023-02-12T05:38:52;95779.81;;;-0.90;50.50
68179;BME280;54998;42.656;23.382;2023-02-12T05:41:20;95804.72;;;-0.80;50.42
68179;BME280;54998;42.656;23.382;2023-02-12T05:43:46;95807.03;;;-0.73;50.17
68179;BME280;54998;42.656;23.382;2023-02-12T05:46:12;95801.72;;;-0.65;50.00
68179;BME280;54998;42.656;23.382;2023-02-12T05:48:38;95802.84;;;-0.74;50.24
68179;BME280;54998;42.656;23.382;2023-02-12T05:51:09;95794.41;;;-0.73;50.96
68179;BME280;54998;42.656;23.382;2023-02-12T05:53:36;95812.03;;;-0.71;51.52
68179;BME280;54998;42.656;23.382;2023-02-12T05:58:31;95812.28;;;-0.80;52.87
68179;BME280;54998;42.656;23.382;2023-02-12T06:00:57;95820.19;;;-0.91;54.01
68179;BME280;54998;42.656;23.382;2023-02-12T06:03:22;95809.00;;;-1.11;54.98
68179;BME280;54998;42.656;23.382;2023-02-12T06:05:51;95819.78;;;-1.06;55.09
68179;BME280;54998;42.656;23.382;2023-02-12T06:08:17;95830.06;;;-1.12;55.40
68179;BME280;54998;42.656;23.382;2023-02-12T06:10:42;95828.44;;;-1.14;55.56
68179;BME280;54998;42.656;23.382;2023-02-12T06:13:08;95834.28;;;-1.12;55.88
68179;BME280;54998;42.656;23.382;2023-02-12T06:15:35;95834.63;;;-0.96;55.71
68179;BME280;54998;42.656;23.382;2023-02-12T06:18:01;95824.66;;;-0.99;56.06
68179;BME280;54998;42.656;23.382;2023-02-12T06:20:26;95829.94;;;-1.09;56.76
68179;BME280;54998;42.656;23.382;2023-02-12T06:22:51;95828.53;;;-0.89;56.72
68179;BME280;54998;42.656;23.382;2023-02-12T06:25:17;95820.41;;;-0.97;57.49
68179;BME280;54998;42.656;23.382;2023-02-12T06:27:42;95827.63;;;-1.15;58.29
68179;BME280;54998;42.656;23.382;2023-02-12T06:30:08;95828.16;;;-1.05;58.91
68179;BME280;54998;42.656;23.382;2023-02-12T06:32:34;95834.72;;;-0.99;59.24
68179;BME280;54998;42.656;23.382;2023-02-12T06:34:59;95833.81;;;-0.97;59.64
68179;BME280;54998;42.656;23.382;2023-02-12T06:37:25;95833.22;;;-1.05;60.04
68179;BME280;54998;42.656;23.382;2023-02-12T06:39:50;95810.34;;;-0.99;60.43
68179;BME280;54998;42.656;23.382;2023-02-12T06:42:15;95848.69;;;-1.17;61.79
68179;BME280;54998;42.656;23.382;2023-02-12T06:44:41;95829.78;;;-1.02;61.95
68179;BME280;54998;42.656;23.382;2023-02-12T06:47:06;95840.72;;;-1.04;62.49
68179;BME280;54998;42.656;23.382;2023-02-12T06:49:32;95833.88;;;-1.00;62.58
68179;BME280;54998;42.656;23.382;2023-02-12T06:51:57;95843.06;;;-0.97;62.69
68179;BME280;54998;42.656;23.382;2023-02-12T06:54:23;95838.06;;;-0.99;63.10
68179;BME280;54998;42.656;23.382;2023-02-12T06:56:48;95838.28;;;-1.07;63.58
68179;BME280;54998;42.656;23.382;2023-02-12T06:59:15;95843.28;;;-1.05;63.83
68179;BME280;54998;42.656;23.382;2023-02-12T07:01:40;95826.75;;;-1.14;64.18
68179;BME280;54998;42.656;23.382;2023-02-12T07:04:06;95846.81;;;-1.11;64.40
68179;BME280;54998;42.656;23.382;2023-02-12T07:06:33;95850.31;;;-1.15;64.52
68179;BME280;54998;42.656;23.382;2023-02-12T07:08:59;95850.22;;;-1.12;64.54
68179;BME280;54998;42.656;23.382;2023-02-12T07:11:26;95836.38;;;-0.98;63.98
68179;BME280;54998;42.656;23.382;2023-02-12T07:13:52;95852.16;;;-0.93;63.72
68179;BME280;54998;42.656;23.382;2023-02-12T07:16:18;95845.66;;;-1.00;63.80
68179;BME280;54998;42.656;23.382;2023-02-12T07:18:44;95844.38;;;-1.14;63.99
68179;BME280;54998;42.656;23.382;2023-02-12T07:21:11;95847.22;;;-1.25;64.59
68179;BME280;54998;42.656;23.382;2023-02-12T07:23:38;95846.25;;;-1.20;64.41
68179;BME280;54998;42.656;23.382;2023-02-12T07:26:06;95849.22;;;-1.06;64.15
68179;BME280;54998;42.656;23.382;2023-02-12T07:28:33;95839.94;;;-1.06;64.29
68179;BME280;54998;42.656;23.382;2023-02-12T07:31:13;95845.97;;;-1.11;64.61
68179;BME280;54998;42.656;23.382;2023-02-12T07:33:39;95856.78;;;-1.06;64.43
68179;BME280;54998;42.656;23.382;2023-02-12T07:36:10;95849.31;;;-1.11;64.50
68179;BME280;54998;42.656;23.382;2023-02-12T07:38:38;95863.00;;;-1.19;65.13
68179;BME280;54998;42.656;23.382;2023-02-12T07:41:13;95867.06;;;-1.14;65.23
68179;BME280;54998;42.656;23.382;2023-02-12T07:43:43;95861.34;;;-1.19;65.19
68179;BME280;54998;42.656;23.382;2023-02-12T07:46:12;95865.16;;;-1.06;64.90
68179;BME280;54998;42.656;23.382;2023-02-12T07:48:38;95872.47;;;-0.98;64.71
68179;BME280;54998;42.656;23.382;2023-02-12T07:51:10;95857.81;;;-1.13;65.28
68179;BME280;54998;42.656;23.382;2023-02-12T07:53:36;95858.53;;;-1.10;65.68
68179;BME280;54998;42.656;23.382;2023-02-12T07:56:09;95857.31;;;-0.96;64.88
68179;BME280;54998;42.656;23.382;2023-02-12T07:58:35;95852.63;;;-1.09;65.32
68179;BME280;54998;42.656;23.382;2023-02-12T08:01:10;95863.47;;;-1.07;65.48
68179;BME280;54998;42.656;23.382;2023-02-12T08:03:36;95860.00;;;-1.02;65.42
68179;BME280;54998;42.656;23.382;2023-02-12T08:06:09;95865.22;;;-1.09;65.35
68179;BME280;54998;42.656;23.382;2023-02-12T08:08:35;95863.41;;;-1.04;65.40
68179;BME280;54998;42.656;23.382;2023-02-12T08:11:12;95880.34;;;-1.09;65.74
68179;BME280;54998;42.656;23.382;2023-02-12T08:13:38;95876.81;;;-1.03;65.50
68179;BME280;54998;42.656;23.382;2023-02-12T08:16:08;95867.22;;;-0.90;65.35
68179;BME280;54998;42.656;23.382;2023-02-12T08:18:34;95872.94;;;-0.85;65.06
68179;BME280;54998;42.656;23.382;2023-02-12T08:21:07;95866.22;;;-0.85;65.03
68179;BME280;54998;42.656;23.382;2023-02-12T08:23:33;95860.91;;;-0.77;64.89
68179;BME280;54998;42.656;23.382;2023-02-12T08:26:14;95865.81;;;-0.72;64.69
68179;BME280;54998;42.656;23.382;2023-02-12T08:28:42;95882.59;;;-0.71;64.69
68179;BME280;54998;42.656;23.382;2023-02-12T08:31:14;95889.16;;;-0.66;64.35
68179;BME280;54998;42.656;23.382;2023-02-12T08:33:40;95892.84;;;-0.76;64.81
68179;BME280;54998;42.656;23.382;2023-02-12T08:36:13;95900.00;;;-0.92;65.57
68179;BME280;54998;42.656;23.382;2023-02-12T08:38:40;95898.13;;;-0.85;65.20
68179;BME280;54998;42.656;23.382;2023-02-12T08:41:09;95904.78;;;-0.83;65.32
68179;BME280;54998;42.656;23.382;2023-02-12T08:43:36;95912.06;;;-0.73;65.22
68179;BME280;54998;42.656;23.382;2023-02-12T08:46:09;95913.81;;;-0.75;65.32
68179;BME280;54998;42.656;23.382;2023-02-12T08:48:35;95909.00;;;-0.55;64.90
68179;BME280;54998;42.656;23.382;2023-02-12T08:51:09;95903.44;;;-0.38;64.06
68179;BME280;54998;42.656;23.382;2023-02-12T08:53:36;95913.25;;;-0.57;64.34
68179;BME280;54998;42.656;23.382;2023-02-12T08:56:02;95912.72;;;-0.67;64.02
68179;BME280;54998;42.656;23.382;2023-02-12T08:58:28;95921.25;;;-0.71;64.50
68179;BME280;54998;42.656;23.382;2023-02-12T09:00:54;95909.94;;;-0.87;65.13
68179;BME280;54998;42.656;23.382;2023-02-12T09:03:19;95920.09;;;-0.60;64.89
68179;BME280;54998;42.656;23.382;2023-02-12T09:05:44;95918.09;;;-0.51;64.55
68179;BME280;54998;42.656;23.382;2023-02-12T09:08:10;95912.25;;;-0.51;64.45
68179;BME280;54998;42.656;23.382;2023-02-12T09:10:40;95918.22;;;-0.54;64.75
68179;BME280;54998;42.656;23.382;2023-02-12T09:13:07;95923.91;;;-0.47;64.47
68179;BME280;54998;42.656;23.382;2023-02-12T09:15:44;95931.47;;;-0.47;64.83
68179;BME280;54998;42.656;23.382;2023-02-12T09:18:11;95924.59;;;-0.44;64.88
68179;BME280;54998;42.656;23.382;2023-02-12T09:20:39;95928.66;;;-0.38;65.06
68179;BME280;54998;42.656;23.382;2023-02-12T09:23:06;95941.38;;;-0.41;65.02
68179;BME280;54998;42.656;23.382;2023-02-12T09:25:32;95932.31;;;-0.48;65.52
68179;BME280;54998;42.656;23.382;2023-02-12T09:30:46;95947.59;;;-0.53;65.65
68179;BME280;54998;42.656;23.382;2023-02-12T09:33:12;95942.06;;;-0.37;65.53
68179;BME280;54998;42.656;23.382;2023-02-12T09:35:38;95940.59;;;-0.16;64.81
68179;BME280;54998;42.656;23.382;2023-02-12T09:38:04;95940.56;;;-0.15;64.30
68179;BME280;54998;42.656;23.382;2023-02-12T09:40:38;95940.56;;;-0.15;64.58
68179;BME280;54998;42.656;23.382;2023-02-12T09:43:17;95941.97;;;-0.06;63.87
68179;BME280;54998;42.656;23.382;2023-02-12T09:45:50;95944.38;;;-0.03;63.79
68179;BME280;54998;42.656;23.382;2023-02-12T09:51:06;95941.75;;;0.00;64.03
68179;BME280;54998;42.656;23.382;2023-02-12T09:53:36;95950.09;;;0.02;63.89
68179;BME280;54998;42.656;23.382;2023-02-12T09:56:15;95942.81;;;-0.07;63.96
68179;BME280;54998;42.656;23.382;2023-02-12T09:58:53;95947.47;;;0.05;63.85
68179;BME280;54998;42.656;23.382;2023-02-12T10:01:21;95947.84;;;0.19;63.47
68179;BME280;54998;42.656;23.382;2023-02-12T10:03:48;95937.25;;;0.58;62.62
68179;BME280;54998;42.656;23.382;2023-02-12T10:06:24;95949.25;;;0.53;62.39
68179;BME280;54998;42.656;23.382;2023-02-12T10:17:23;95936.50;;;1.27;60.30
68179;BME280;54998;42.656;23.382;2023-02-12T10:22:50;95933.72;;;0.88;60.35
68179;BME280;54998;42.656;23.382;2023-02-12T10:25:36;95941.41;;;1.54;59.04
68179;BME280;54998;42.656;23.382;2023-02-12T10:28:12;95940.72;;;1.93;57.32
68179;BME280;54998;42.656;23.382;2023-02-12T10:30:51;95945.63;;;1.31;59.38
68179;BME280;54998;42.656;23.382;2023-02-12T10:33:28;95952.63;;;1.47;59.21
68179;BME280;54998;42.656;23.382;2023-02-12T10:36:10;95943.75;;;1.36;59.38
68179;BME280;54998;42.656;23.382;2023-02-12T10:38:41;95951.69;;;1.49;58.92
68179;BME280;54998;42.656;23.382;2023-02-12T10:41:14;95948.28;;;1.28;59.38
68179;BME280;54998;42.656;23.382;2023-02-12T10:43:40;95953.22;;;1.31;59.67
68179;BME280;54998;42.656;23.382;2023-02-12T10:46:05;95951.63;;;1.29;59.56
68179;BME280;54998;42.656;23.382;2023-02-12T10:48:34;95958.41;;;1.28;59.66
68179;BME280;54998;42.656;23.382;2023-02-12T10:53:42;95961.38;;;0.92;60.58
68179;BME280;54998;42.656;23.382;2023-02-12T11:01:30;95963.88;;;1.39;59.42
68179;BME280;54998;42.656;23.382;2023-02-12T11:03:57;95960.81;;;1.75;58.35
68179;BME280;54998;42.656;23.382;2023-02-12T11:06:26;95947.03;;;1.60;59.26
68179;BME280;54998;42.656;23.382;2023-02-12T11:08:52;95954.16;;;1.95;57.81
68179;BME280;54998;42.656;23.382;2023-02-12T11:11:27;95945.31;;;2.05;58.13
68179;BME280;54998;42.656;23.382;2023-02-12T11:16:35;95944.72;;;2.80;55.79
68179;BME280;54998;42.656;23.382;2023-02-12T11:19:07;95950.09;;;2.93;54.80
68179;BME280;54998;42.656;23.382;2023-02-12T11:21:34;95954.50;;;3.27;54.28
68179;BME280;54998;42.656;23.382;2023-02-12T11:24:28;95957.44;;;3.56;53.17
68179;BME280;54998;42.656;23.382;2023-02-12T11:27:30;95949.56;;;3.43;53.73
68179;BME280;54998;42.656;23.382;2023-02-12T11:32:38;95940.41;;;2.82;55.89
68179;BME280;54998;42.656;23.382;2023-02-12T11:35:13;95939.00;;;2.96;55.47
68179;BME280;54998;42.656;23.382;2023-02-12T11:37:41;95938.16;;;2.95;54.79
68179;BME280;54998;42.656;23.382;2023-02-12T11:40:28;95942.03;;;3.04;54.68
68179;BME280;54998;42.656;23.382;2023-02-12T11:42:56;95943.00;;;2.81;55.79
68179;BME280;54998;42.656;23.382;2023-02-12T11:45:40;95951.13;;;3.08;54.82
68179;BME280;54998;42.656;23.382;2023-02-12T11:48:21;95946.59;;;3.34;54.09
68179;BME280;54998;42.656;23.382;2023-02-12T11:50:50;95953.56;;;2.51;56.10
68179;BME280;54998;42.656;23.382;2023-02-12T11:53:23;95950.50;;;2.63;56.10
68179;BME280;54998;42.656;23.382;2023-02-12T11:56:13;95939.19;;;2.31;56.94
68179;BME280;54998;42.656;23.382;2023-02-12T11:58:39;95944.94;;;2.55;56.42
68179;BME280;54998;42.656;23.382;2023-02-12T12:01:21;95956.69;;;2.77;55.70
68179;BME280;54998;42.656;23.382;2023-02-12T12:04:02;95952.63;;;2.93;55.02
68179;BME280;54998;42.656;23.382;2023-02-12T12:14:23;95944.06;;;2.96;54.64
68179;BME280;54998;42.656;23.382;2023-02-12T12:16:57;95951.41;;;3.02;54.75
68179;BME280;54998;42.656;23.382;2023-02-12T12:28:00;95962.22;;;2.86;55.25
68179;BME280;54998;42.656;23.382;2023-02-12T12:31:09;95960.84;;;2.98;55.38
68179;BME280;54998;42.656;23.382;2023-02-12T12:33:39;95960.53;;;3.06;54.53
68179;BME280;54998;42.656;23.382;2023-02-12T12:41:38;95971.75;;;3.00;54.76
68179;BME280;54998;42.656;23.382;2023-02-12T12:52:22;95978.00;;;3.50;53.68
68179;BME280;54998;42.656;23.382;2023-02-12T13:00:40;95984.38;;;2.81;55.41
68179;BME280;54998;42.656;23.382;2023-02-12T13:03:26;95986.25;;;2.97;54.76
68179;BME280;54998;42.656;23.382;2023-02-12T13:06:10;95985.53;;;2.13;57.38
68179;BME280;54998;42.656;23.382;2023-02-12T13:09:04;95993.91;;;2.56;56.31
68179;BME280;54998;42.656;23.382;2023-02-12T13:14:29;95977.38;;;2.67;55.95
68179;BME280;54998;42.656;23.382;2023-02-12T13:17:06;95978.38;;;2.63;55.92
68179;BME280;54998;42.656;23.382;2023-02-12T13:20:04;95987.31;;;2.72;56.23
68179;BME280;54998;42.656;23.382;2023-02-12T13:27:38;95988.69;;;2.38;57.24
68179;BME280;54998;42.656;23.382;2023-02-12T13:32:59;95988.31;;;2.07;58.21
68179;BME280;54998;42.656;23.382;2023-02-12T13:35:28;95994.16;;;2.29;57.83
68179;BME280;54998;42.656;23.382;2023-02-12T13:37:58;95994.75;;;2.14;58.13
68179;BME280;54998;42.656;23.382;2023-02-12T13:40:29;95988.88;;;2.13;58.07
68179;BME280;54998;42.656;23.382;2023-02-12T13:43:04;96002.94;;;2.20;57.80
68179;BME280;54998;42.656;23.382;2023-02-12T13:48:25;96000.03;;;2.30;58.04
68179;BME280;54998;42.656;23.382;2023-02-12T13:51:25;96012.47;;;2.36;57.63
68179;BME280;54998;42.656;23.382;2023-02-12T13:58:59;96011.50;;;2.18;58.34
68179;BME280;54998;42.656;23.382;2023-02-12T14:01:57;96016.22;;;2.05;58.67
68179;BME280;54998;42.656;23.382;2023-02-12T14:04:39;96011.09;;;2.07;58.63
68179;BME280;54998;42.656;23.382;2023-02-12T14:07:14;96021.00;;;2.13;58.87
68179;BME280;54998;42.656;23.382;2023-02-12T14:10:40;96032.03;;;1.88;59.53
68179;BME280;54998;42.656;23.382;2023-02-12T14:13:19;96028.25;;;2.00;58.88
68179;BME280;54998;42.656;23.382;2023-02-12T14:15:49;96038.00;;;2.09;59.12
68179;BME280;54998;42.656;23.382;2023-02-12T14:23:35;96039.13;;;2.24;58.46
68179;BME280;54998;42.656;23.382;2023-02-12T14:26:08;96040.31;;;2.36;58.04
68179;BME280;54998;42.656;23.382;2023-02-12T14:28:58;96046.22;;;2.14;58.73
68179;BME280;54998;42.656;23.382;2023-02-12T14:31:34;96052.97;;;2.15;58.50
68179;BME280;54998;42.656;23.382;2023-02-12T14:36:47;96059.38;;;2.02;59.32
68179;BME280;54998;42.656;23.382;2023-02-12T14:41:55;96071.56;;;2.14;58.61
68179;BME280;54998;42.656;23.382;2023-02-12T14:44:47;96067.09;;;1.99;58.83
68179;BME280;54998;42.656;23.382;2023-02-12T14:49:56;96079.28;;;1.89;59.50
68179;BME280;54998;42.656;23.382;2023-02-12T14:52:26;96080.03;;;1.91;59.42
68179;BME280;54998;42.656;23.382;2023-02-12T14:57:48;96088.56;;;1.89;60.19
68179;BME280;54998;42.656;23.382;2023-02-12T15:03:28;96094.97;;;1.97;59.55
68179;BME280;54998;42.656;23.382;2023-02-12T15:06:12;96100.59;;;2.05;59.18
68179;BME280;54998;42.656;23.382;2023-02-12T15:11:37;96112.56;;;2.02;59.22
68179;BME280;54998;42.656;23.382;2023-02-12T15:14:23;96117.63;;;2.02;59.56
68179;BME280;54998;42.656;23.382;2023-02-12T15:19:38;96130.28;;;2.02;59.35
68179;BME280;54998;42.656;23.382;2023-02-12T15:22:20;96133.38;;;1.87;59.80
68179;BME280;54998;42.656;23.382;2023-02-12T15:24:46;96142.56;;;1.89;59.58
68179;BME280;54998;42.656;23.382;2023-02-12T15:27:13;96154.16;;;1.95;59.68
68179;BME280;54998;42.656;23.382;2023-02-12T15:29:45;96160.13;;;1.94;59.85
68179;BME280;54998;42.656;23.382;2023-02-12T15:32:24;96164.56;;;1.87;60.42
68179;BME280;54998;42.656;23.382;2023-02-12T15:34:54;96167.88;;;1.66;60.54
68179;BME280;54998;42.656;23.382;2023-02-12T15:37:29;96171.94;;;1.70;60.73
68179;BME280;54998;42.656;23.382;2023-02-12T15:39:57;96169.72;;;1.60;60.88
68179;BME280;54998;42.656;23.382;2023-02-12T15:42:30;96181.13;;;1.72;60.69
68179;BME280;54998;42.656;23.382;2023-02-12T15:47:41;96168.44;;;1.74;61.06
68179;BME280;54998;42.656;23.382;2023-02-12T15:52:43;96194.41;;;1.79;60.61
68179;BME280;54998;42.656;23.382;2023-02-12T15:55:36;96184.66;;;1.68;61.04
68179;BME280;54998;42.656;23.382;2023-02-12T15:58:03;96189.34;;;1.54;61.90
68179;BME280;54998;42.656;23.382;2023-02-12T16:00:41;96192.56;;;1.59;62.04